KNUI

Webster Nolf Airport

St Inigoes, Maryland, USA
METAR KNUI 151853Z AUTO 19014KT 10SM SCT095 18/06 A2970 RMK AO2 SLP056 T01780061
Observed Flight Rules
Feb-15 @ 18:53 UTC (14 minutes ago) Visual Flight Rules
Wind Visibility Clouds
190° at 14 knots 10 miles
  • Scattered at 9,500' AGL
Temperatures Readings
Current 18°C / 64°F
Dewpoint 6°C / 43°F
Humidity 46%
Altimeter 29.7" Hg
Pressure 1005.6 hPa
Elevation 7
METAR KNUI 151853Z AUTO 19014KT 10SM SCT095 18/06 A2970 RMK AO2 SLP056 T01780061
Observed Flight Rules
Feb-15 @ 18:53 UTC
(14 minutes ago)
VFR
Wind Visibility
190° at 14 knots 10 miles
Clouds
  • Scattered at 9,500' AGL
Temperature Dewpoint
18°C / 64°F 6°C / 43°F
Humidity Altimeter Pressure
46% 29.7" Hg 1005.6 hPa